WebCam

Kamera Halle
Kamera Vorplatz
Wetter EDDS

METAR

EDDS 261450Z 01006KT 330V050 9999 FEW012 BKN015 17/14 Q1022 NOSIG =


TAF

EDDS 261100Z 2612/2712 34005KT 9999 SCT010 BKN025 TEMPO 2612/2614 BKN010 PROB40 TEMPO 2623/2709 3000 SHRA BKN014 BKN025TCU =


SR/SS

05:14 / 17:09 UTC
(EDSO 26-09-2016)

Austräger der GPS Triangle WM 2017